sensor_id;sensor_type;location;lat;lon;timestamp;P1;durP1;ratioP1;P2;durP2;ratioP2
75506;SDS011;64086;43.220;27.878;2023-05-29T00:02:04;12.40;;;11.20;;
75506;SDS011;64086;43.220;27.878;2023-05-29T00:04:29;12.13;;;10.93;;
75506;SDS011;64086;43.220;27.878;2023-05-29T00:06:55;11.95;;;10.85;;
75506;SDS011;64086;43.220;27.878;2023-05-29T00:09:20;12.20;;;11.00;;
75506;SDS011;64086;43.220;27.878;2023-05-29T00:11:46;12.90;;;11.52;;
75506;SDS011;64086;43.220;27.878;2023-05-29T00:14:16;12.63;;;11.43;;
75506;SDS011;64086;43.220;27.878;2023-05-29T00:16:44;12.60;;;11.43;;
75506;SDS011;64086;43.220;27.878;2023-05-29T00:19:10;12.30;;;11.20;;
75506;SDS011;64086;43.220;27.878;2023-05-29T00:21:35;12.52;;;11.30;;
75506;SDS011;64086;43.220;27.878;2023-05-29T00:24:01;12.18;;;11.07;;
75506;SDS011;64086;43.220;27.878;2023-05-29T00:26:26;12.65;;;11.45;;
75506;SDS011;64086;43.220;27.878;2023-05-29T00:28:52;11.95;;;10.85;;
75506;SDS011;64086;43.220;27.878;2023-05-29T00:31:17;12.68;;;11.52;;
75506;SDS011;64086;43.220;27.878;2023-05-29T00:33:42;14.18;;;12.35;;
75506;SDS011;64086;43.220;27.878;2023-05-29T00:36:08;13.13;;;11.82;;
75506;SDS011;64086;43.220;27.878;2023-05-29T00:38:33;12.75;;;11.55;;
75506;SDS011;64086;43.220;27.878;2023-05-29T00:40:59;13.27;;;12.07;;
75506;SDS011;64086;43.220;27.878;2023-05-29T00:43:24;14.02;;;12.63;;
75506;SDS011;64086;43.220;27.878;2023-05-29T00:45:50;13.88;;;12.55;;
75506;SDS011;64086;43.220;27.878;2023-05-29T00:48:15;14.10;;;12.80;;
75506;SDS011;64086;43.220;27.878;2023-05-29T00:50:43;14.80;;;13.35;;
75506;SDS011;64086;43.220;27.878;2023-05-29T00:53:08;14.85;;;13.52;;
75506;SDS011;64086;43.220;27.878;2023-05-29T00:55:34;15.23;;;13.82;;
75506;SDS011;64086;43.220;27.878;2023-05-29T00:58:00;15.25;;;13.75;;
75506;SDS011;64086;43.220;27.878;2023-05-29T01:00:25;15.00;;;13.48;;
75506;SDS011;64086;43.220;27.878;2023-05-29T01:02:51;15.40;;;13.93;;
75506;SDS011;64086;43.220;27.878;2023-05-29T01:05:17;15.18;;;13.77;;
75506;SDS011;64086;43.220;27.878;2023-05-29T01:07:44;15.82;;;14.30;;
75506;SDS011;64086;43.220;27.878;2023-05-29T01:10:09;15.85;;;14.25;;
75506;SDS011;64086;43.220;27.878;2023-05-29T01:17:35;16.45;;;14.82;;
75506;SDS011;64086;43.220;27.878;2023-05-29T01:20:14;16.60;;;14.97;;
75506;SDS011;64086;43.220;27.878;2023-05-29T01:25:27;16.58;;;14.98;;
75506;SDS011;64086;43.220;27.878;2023-05-29T01:27:59;16.73;;;15.02;;
75506;SDS011;64086;43.220;27.878;2023-05-29T01:30:27;17.75;;;15.93;;
75506;SDS011;64086;43.220;27.878;2023-05-29T01:32:53;18.33;;;16.08;;
75506;SDS011;64086;43.220;27.878;2023-05-29T01:35:19;18.88;;;16.38;;
75506;SDS011;64086;43.220;27.878;2023-05-29T01:37:45;18.40;;;16.50;;
75506;SDS011;64086;43.220;27.878;2023-05-29T01:40:10;20.90;;;17.35;;
75506;SDS011;64086;43.220;27.878;2023-05-29T01:42:36;20.70;;;17.90;;
75506;SDS011;64086;43.220;27.878;2023-05-29T01:45:02;20.08;;;18.08;;
75506;SDS011;64086;43.220;27.878;2023-05-29T01:47:30;21.08;;;17.73;;
75506;SDS011;64086;43.220;27.878;2023-05-29T01:49:55;20.80;;;18.60;;
75506;SDS011;64086;43.220;27.878;2023-05-29T01:52:21;20.77;;;18.55;;
75506;SDS011;64086;43.220;27.878;2023-05-29T01:54:46;24.27;;;19.73;;
75506;SDS011;64086;43.220;27.878;2023-05-29T01:57:12;21.50;;;19.15;;
75506;SDS011;64086;43.220;27.878;2023-05-29T01:59:37;21.65;;;19.35;;
75506;SDS011;64086;43.220;27.878;2023-05-29T02:02:09;22.83;;;19.98;;
75506;SDS011;64086;43.220;27.878;2023-05-29T02:04:35;23.10;;;20.58;;
75506;SDS011;64086;43.220;27.878;2023-05-29T02:07:00;22.00;;;19.70;;
75506;SDS011;64086;43.220;27.878;2023-05-29T02:09:26;23.88;;;20.98;;
75506;SDS011;64086;43.220;27.878;2023-05-29T02:11:52;22.35;;;20.05;;
75506;SDS011;64086;43.220;27.878;2023-05-29T02:14:17;22.73;;;20.33;;
75506;SDS011;64086;43.220;27.878;2023-05-29T02:16:43;22.25;;;20.02;;
75506;SDS011;64086;43.220;27.878;2023-05-29T02:19:10;22.40;;;20.13;;
75506;SDS011;64086;43.220;27.878;2023-05-29T02:21:38;21.95;;;19.42;;
75506;SDS011;64086;43.220;27.878;2023-05-29T02:24:07;22.52;;;20.15;;
75506;SDS011;64086;43.220;27.878;2023-05-29T02:26:33;20.83;;;18.73;;
75506;SDS011;64086;43.220;27.878;2023-05-29T02:29:01;21.42;;;19.35;;
75506;SDS011;64086;43.220;27.878;2023-05-29T02:31:27;22.13;;;19.80;;
75506;SDS011;64086;43.220;27.878;2023-05-29T02:33:52;20.98;;;18.90;;
75506;SDS011;64086;43.220;27.878;2023-05-29T02:36:18;20.85;;;18.60;;
75506;SDS011;64086;43.220;27.878;2023-05-29T02:38:43;21.42;;;19.33;;
75506;SDS011;64086;43.220;27.878;2023-05-29T02:41:08;20.02;;;18.13;;
75506;SDS011;64086;43.220;27.878;2023-05-29T02:43:34;20.63;;;18.17;;
75506;SDS011;64086;43.220;27.878;2023-05-29T02:45:59;20.20;;;18.00;;
75506;SDS011;64086;43.220;27.878;2023-05-29T02:48:25;19.52;;;17.73;;
75506;SDS011;64086;43.220;27.878;2023-05-29T02:50:51;19.70;;;17.80;;
75506;SDS011;64086;43.220;27.878;2023-05-29T02:53:16;19.73;;;17.73;;
75506;SDS011;64086;43.220;27.878;2023-05-29T02:55:42;18.58;;;16.85;;
75506;SDS011;64086;43.220;27.878;2023-05-29T02:58:07;18.50;;;16.67;;
75506;SDS011;64086;43.220;27.878;2023-05-29T03:00:33;19.50;;;17.42;;
75506;SDS011;64086;43.220;27.878;2023-05-29T03:02:58;18.95;;;17.05;;
75506;SDS011;64086;43.220;27.878;2023-05-29T03:05:24;18.58;;;16.73;;
75506;SDS011;64086;43.220;27.878;2023-05-29T03:07:50;18.05;;;16.45;;
75506;SDS011;64086;43.220;27.878;2023-05-29T03:10:16;18.52;;;16.70;;
75506;SDS011;64086;43.220;27.878;2023-05-29T03:12:42;21.20;;;18.92;;
75506;SDS011;64086;43.220;27.878;2023-05-29T03:15:09;19.70;;;17.63;;
75506;SDS011;64086;43.220;27.878;2023-05-29T03:17:34;19.75;;;17.80;;
75506;SDS011;64086;43.220;27.878;2023-05-29T03:20:03;20.25;;;17.95;;
75506;SDS011;64086;43.220;27.878;2023-05-29T03:22:31;18.48;;;16.75;;
75506;SDS011;64086;43.220;27.878;2023-05-29T03:24:57;18.63;;;16.92;;
75506;SDS011;64086;43.220;27.878;2023-05-29T03:27:22;19.20;;;16.67;;
75506;SDS011;64086;43.220;27.878;2023-05-29T03:29:48;19.13;;;17.10;;
75506;SDS011;64086;43.220;27.878;2023-05-29T03:32:13;18.52;;;16.83;;
75506;SDS011;64086;43.220;27.878;2023-05-29T03:34:39;19.58;;;17.48;;
75506;SDS011;64086;43.220;27.878;2023-05-29T03:37:05;19.17;;;17.17;;
75506;SDS011;64086;43.220;27.878;2023-05-29T03:39:30;17.98;;;16.35;;
75506;SDS011;64086;43.220;27.878;2023-05-29T03:41:56;17.83;;;15.27;;
75506;SDS011;64086;43.220;27.878;2023-05-29T03:44:21;17.80;;;16.10;;
75506;SDS011;64086;43.220;27.878;2023-05-29T03:46:46;17.05;;;15.35;;
75506;SDS011;64086;43.220;27.878;2023-05-29T03:49:12;15.80;;;14.20;;
75506;SDS011;64086;43.220;27.878;2023-05-29T03:51:37;16.83;;;15.05;;
75506;SDS011;64086;43.220;27.878;2023-05-29T03:54:03;16.33;;;14.65;;
75506;SDS011;64086;43.220;27.878;2023-05-29T03:56:28;16.30;;;14.57;;
75506;SDS011;64086;43.220;27.878;2023-05-29T03:58:55;16.50;;;14.93;;
75506;SDS011;64086;43.220;27.878;2023-05-29T04:01:20;17.00;;;15.18;;
75506;SDS011;64086;43.220;27.878;2023-05-29T04:03:46;17.00;;;15.10;;
75506;SDS011;64086;43.220;27.878;2023-05-29T04:06:11;17.00;;;15.18;;
75506;SDS011;64086;43.220;27.878;2023-05-29T04:08:38;17.67;;;14.50;;
75506;SDS011;64086;43.220;27.878;2023-05-29T04:11:03;17.27;;;15.10;;
75506;SDS011;64086;43.220;27.878;2023-05-29T04:13:29;15.63;;;14.13;;
75506;SDS011;64086;43.220;27.878;2023-05-29T04:15:55;16.48;;;14.77;;
75506;SDS011;64086;43.220;27.878;2023-05-29T04:18:20;15.52;;;13.93;;
75506;SDS011;64086;43.220;27.878;2023-05-29T04:20:46;16.10;;;14.40;;
75506;SDS011;64086;43.220;27.878;2023-05-29T04:23:12;15.55;;;13.70;;
75506;SDS011;64086;43.220;27.878;2023-05-29T04:25:38;17.05;;;15.10;;
75506;SDS011;64086;43.220;27.878;2023-05-29T04:28:03;17.42;;;14.68;;
75506;SDS011;64086;43.220;27.878;2023-05-29T04:30:29;17.95;;;14.95;;
75506;SDS011;64086;43.220;27.878;2023-05-29T04:32:55;16.55;;;14.85;;
75506;SDS011;64086;43.220;27.878;2023-05-29T04:35:20;17.63;;;14.52;;
75506;SDS011;64086;43.220;27.878;2023-05-29T04:37:46;17.35;;;14.63;;
75506;SDS011;64086;43.220;27.878;2023-05-29T04:40:12;17.50;;;14.90;;
75506;SDS011;64086;43.220;27.878;2023-05-29T04:42:42;17.33;;;14.55;;
75506;SDS011;64086;43.220;27.878;2023-05-29T04:45:10;18.30;;;14.55;;
75506;SDS011;64086;43.220;27.878;2023-05-29T04:47:36;15.52;;;13.90;;
75506;SDS011;64086;43.220;27.878;2023-05-29T04:50:11;17.63;;;14.80;;
75506;SDS011;64086;43.220;27.878;2023-05-29T04:52:37;17.88;;;14.15;;
75506;SDS011;64086;43.220;27.878;2023-05-29T04:55:03;17.02;;;15.00;;
75506;SDS011;64086;43.220;27.878;2023-05-29T04:57:29;16.60;;;14.20;;
75506;SDS011;64086;43.220;27.878;2023-05-29T04:59:54;15.98;;;14.35;;
75506;SDS011;64086;43.220;27.878;2023-05-29T05:02:19;17.95;;;14.70;;
75506;SDS011;64086;43.220;27.878;2023-05-29T05:04:45;16.83;;;15.13;;
75506;SDS011;64086;43.220;27.878;2023-05-29T05:07:11;16.67;;;14.95;;
75506;SDS011;64086;43.220;27.878;2023-05-29T05:09:37;15.70;;;13.98;;
75506;SDS011;64086;43.220;27.878;2023-05-29T05:12:02;17.58;;;14.63;;
75506;SDS011;64086;43.220;27.878;2023-05-29T05:14:28;17.15;;;14.95;;
75506;SDS011;64086;43.220;27.878;2023-05-29T05:16:53;17.65;;;15.13;;
75506;SDS011;64086;43.220;27.878;2023-05-29T05:19:19;18.92;;;15.30;;
75506;SDS011;64086;43.220;27.878;2023-05-29T05:21:45;21.23;;;15.85;;
75506;SDS011;64086;43.220;27.878;2023-05-29T05:24:11;18.48;;;16.48;;
75506;SDS011;64086;43.220;27.878;2023-05-29T05:26:36;17.75;;;15.95;;
75506;SDS011;64086;43.220;27.878;2023-05-29T05:29:02;23.73;;;16.73;;
75506;SDS011;64086;43.220;27.878;2023-05-29T05:31:27;19.00;;;15.63;;
75506;SDS011;64086;43.220;27.878;2023-05-29T05:33:53;17.63;;;15.48;;
75506;SDS011;64086;43.220;27.878;2023-05-29T05:36:18;19.58;;;16.02;;
75506;SDS011;64086;43.220;27.878;2023-05-29T05:38:44;20.45;;;15.90;;
75506;SDS011;64086;43.220;27.878;2023-05-29T05:41:10;18.42;;;16.38;;
75506;SDS011;64086;43.220;27.878;2023-05-29T05:43:35;18.15;;;16.23;;
75506;SDS011;64086;43.220;27.878;2023-05-29T05:46:01;17.02;;;14.98;;
75506;SDS011;64086;43.220;27.878;2023-05-29T05:48:26;18.15;;;15.25;;
75506;SDS011;64086;43.220;27.878;2023-05-29T05:50:52;19.50;;;15.52;;
75506;SDS011;64086;43.220;27.878;2023-05-29T05:53:17;20.30;;;16.20;;
75506;SDS011;64086;43.220;27.878;2023-05-29T05:55:43;16.48;;;14.85;;
75506;SDS011;64086;43.220;27.878;2023-05-29T05:58:08;17.40;;;15.55;;
75506;SDS011;64086;43.220;27.878;2023-05-29T06:00:34;16.95;;;15.18;;
75506;SDS011;64086;43.220;27.878;2023-05-29T06:03:00;16.52;;;14.88;;
75506;SDS011;64086;43.220;27.878;2023-05-29T06:05:28;16.95;;;15.15;;
75506;SDS011;64086;43.220;27.878;2023-05-29T06:07:54;16.13;;;14.60;;
75506;SDS011;64086;43.220;27.878;2023-05-29T06:10:19;17.08;;;14.40;;
75506;SDS011;64086;43.220;27.878;2023-05-29T06:12:44;15.93;;;14.38;;
75506;SDS011;64086;43.220;27.878;2023-05-29T06:15:10;16.80;;;15.10;;
75506;SDS011;64086;43.220;27.878;2023-05-29T06:17:36;16.58;;;14.88;;
75506;SDS011;64086;43.220;27.878;2023-05-29T06:20:01;17.38;;;15.38;;
75506;SDS011;64086;43.220;27.878;2023-05-29T06:22:27;16.27;;;14.68;;
75506;SDS011;64086;43.220;27.878;2023-05-29T06:24:52;17.02;;;15.25;;
75506;SDS011;64086;43.220;27.878;2023-05-29T06:27:17;17.00;;;15.15;;
75506;SDS011;64086;43.220;27.878;2023-05-29T06:29:43;16.13;;;14.48;;
75506;SDS011;64086;43.220;27.878;2023-05-29T06:32:09;17.33;;;14.98;;
75506;SDS011;64086;43.220;27.878;2023-05-29T06:34:34;17.90;;;15.55;;
75506;SDS011;64086;43.220;27.878;2023-05-29T06:37:00;17.98;;;15.50;;
75506;SDS011;64086;43.220;27.878;2023-05-29T06:39:26;16.63;;;14.85;;
75506;SDS011;64086;43.220;27.878;2023-05-29T06:41:51;17.98;;;15.90;;
75506;SDS011;64086;43.220;27.878;2023-05-29T06:44:16;17.80;;;15.00;;
75506;SDS011;64086;43.220;27.878;2023-05-29T06:46:42;15.52;;;13.90;;
75506;SDS011;64086;43.220;27.878;2023-05-29T06:49:07;17.33;;;13.95;;
75506;SDS011;64086;43.220;27.878;2023-05-29T06:51:33;13.70;;;12.30;;
75506;SDS011;64086;43.220;27.878;2023-05-29T06:53:59;16.65;;;13.95;;
75506;SDS011;64086;43.220;27.878;2023-05-29T06:56:24;15.02;;;13.52;;
75506;SDS011;64086;43.220;27.878;2023-05-29T06:58:51;15.43;;;13.93;;
75506;SDS011;64086;43.220;27.878;2023-05-29T07:01:16;16.52;;;14.82;;
75506;SDS011;64086;43.220;27.878;2023-05-29T07:03:42;16.88;;;15.13;;
75506;SDS011;64086;43.220;27.878;2023-05-29T07:06:08;16.55;;;14.85;;
75506;SDS011;64086;43.220;27.878;2023-05-29T07:08:33;17.67;;;15.95;;
75506;SDS011;64086;43.220;27.878;2023-05-29T07:10:59;18.10;;;16.40;;
75506;SDS011;64086;43.220;27.878;2023-05-29T07:13:24;17.50;;;15.80;;
75506;SDS011;64086;43.220;27.878;2023-05-29T07:15:50;19.25;;;16.48;;
75506;SDS011;64086;43.220;27.878;2023-05-29T07:18:15;20.65;;;18.17;;
75506;SDS011;64086;43.220;27.878;2023-05-29T07:20:41;23.90;;;19.02;;
75506;SDS011;64086;43.220;27.878;2023-05-29T07:23:06;20.50;;;17.77;;
75506;SDS011;64086;43.220;27.878;2023-05-29T07:25:32;23.83;;;19.55;;
75506;SDS011;64086;43.220;27.878;2023-05-29T07:27:57;24.67;;;18.27;;
75506;SDS011;64086;43.220;27.878;2023-05-29T07:30:23;19.48;;;17.10;;
75506;SDS011;64086;43.220;27.878;2023-05-29T07:32:48;18.08;;;16.17;;
75506;SDS011;64086;43.220;27.878;2023-05-29T07:35:14;18.15;;;15.80;;
75506;SDS011;64086;43.220;27.878;2023-05-29T07:37:40;18.15;;;13.90;;
75506;SDS011;64086;43.220;27.878;2023-05-29T07:40:06;14.63;;;11.88;;
75506;SDS011;64086;43.220;27.878;2023-05-29T07:42:35;12.68;;;10.95;;
75506;SDS011;64086;43.220;27.878;2023-05-29T07:45:00;12.80;;;10.68;;
75506;SDS011;64086;43.220;27.878;2023-05-29T07:47:26;15.18;;;12.48;;
75506;SDS011;64086;43.220;27.878;2023-05-29T07:49:51;16.67;;;13.45;;
75506;SDS011;64086;43.220;27.878;2023-05-29T07:52:17;13.43;;;12.10;;
75506;SDS011;64086;43.220;27.878;2023-05-29T07:54:43;14.90;;;12.75;;
75506;SDS011;64086;43.220;27.878;2023-05-29T07:57:09;13.98;;;12.48;;
75506;SDS011;64086;43.220;27.878;2023-05-29T07:59:35;14.93;;;12.20;;
75506;SDS011;64086;43.220;27.878;2023-05-29T08:02:01;21.38;;;12.20;;
75506;SDS011;64086;43.220;27.878;2023-05-29T08:04:28;19.15;;;10.60;;
75506;SDS011;64086;43.220;27.878;2023-05-29T08:06:53;20.15;;;11.25;;
75506;SDS011;64086;43.220;27.878;2023-05-29T08:09:19;14.60;;;10.30;;
75506;SDS011;64086;43.220;27.878;2023-05-29T08:11:45;19.08;;;11.32;;
75506;SDS011;64086;43.220;27.878;2023-05-29T08:14:12;13.82;;;10.25;;
75506;SDS011;64086;43.220;27.878;2023-05-29T08:16:38;15.93;;;11.07;;
75506;SDS011;64086;43.220;27.878;2023-05-29T08:19:03;17.48;;;10.70;;
75506;SDS011;64086;43.220;27.878;2023-05-29T08:21:29;16.52;;;11.25;;
75506;SDS011;64086;43.220;27.878;2023-05-29T08:23:56;17.77;;;11.50;;
75506;SDS011;64086;43.220;27.878;2023-05-29T08:26:22;16.88;;;11.60;;
75506;SDS011;64086;43.220;27.878;2023-05-29T08:28:48;19.13;;;11.52;;
75506;SDS011;64086;43.220;27.878;2023-05-29T08:31:13;19.70;;;12.80;;
75506;SDS011;64086;43.220;27.878;2023-05-29T08:33:39;19.70;;;12.43;;
75506;SDS011;64086;43.220;27.878;2023-05-29T08:36:05;15.65;;;10.25;;
75506;SDS011;64086;43.220;27.878;2023-05-29T08:38:30;16.60;;;10.30;;
75506;SDS011;64086;43.220;27.878;2023-05-29T08:40:56;12.35;;;9.57;;
75506;SDS011;64086;43.220;27.878;2023-05-29T08:43:23;11.30;;;9.65;;
75506;SDS011;64086;43.220;27.878;2023-05-29T08:45:53;12.10;;;9.95;;
75506;SDS011;64086;43.220;27.878;2023-05-29T08:48:22;14.63;;;10.32;;
75506;SDS011;64086;43.220;27.878;2023-05-29T08:50:48;13.70;;;11.20;;
75506;SDS011;64086;43.220;27.878;2023-05-29T08:53:16;16.92;;;10.40;;
75506;SDS011;64086;43.220;27.878;2023-05-29T08:55:44;12.90;;;9.48;;
75506;SDS011;64086;43.220;27.878;2023-05-29T08:58:12;10.90;;;9.13;;
75506;SDS011;64086;43.220;27.878;2023-05-29T09:00:38;11.18;;;8.90;;
75506;SDS011;64086;43.220;27.878;2023-05-29T09:03:06;11.93;;;9.35;;
75506;SDS011;64086;43.220;27.878;2023-05-29T09:05:31;10.27;;;9.18;;
75506;SDS011;64086;43.220;27.878;2023-05-29T09:07:57;10.38;;;8.88;;
75506;SDS011;64086;43.220;27.878;2023-05-29T09:10:23;11.77;;;8.63;;
75506;SDS011;64086;43.220;27.878;2023-05-29T09:12:50;11.80;;;8.55;;
75506;SDS011;64086;43.220;27.878;2023-05-29T09:15:19;11.25;;;9.30;;
75506;SDS011;64086;43.220;27.878;2023-05-29T09:17:52;11.10;;;9.07;;
75506;SDS011;64086;43.220;27.878;2023-05-29T09:20:19;11.27;;;8.73;;
75506;SDS011;64086;43.220;27.878;2023-05-29T09:22:58;9.68;;;8.45;;
75506;SDS011;64086;43.220;27.878;2023-05-29T09:25:29;8.88;;;7.53;;
75506;SDS011;64086;43.220;27.878;2023-05-29T09:27:58;8.23;;;7.40;;
75506;SDS011;64086;43.220;27.878;2023-05-29T09:33:19;8.32;;;7.45;;
75506;SDS011;64086;43.220;27.878;2023-05-29T09:35:45;9.50;;;8.60;;
75506;SDS011;64086;43.220;27.878;2023-05-29T09:38:16;9.35;;;8.45;;
75506;SDS011;64086;43.220;27.878;2023-05-29T09:40:42;8.90;;;7.82;;
75506;SDS011;64086;43.220;27.878;2023-05-29T09:45:37;8.93;;;7.80;;
75506;SDS011;64086;43.220;27.878;2023-05-29T09:48:07;9.73;;;7.85;;
75506;SDS011;64086;43.220;27.878;2023-05-29T09:50:33;9.43;;;8.40;;
75506;SDS011;64086;43.220;27.878;2023-05-29T09:52:59;13.57;;;8.35;;
75506;SDS011;64086;43.220;27.878;2023-05-29T09:55:26;9.60;;;8.60;;
75506;SDS011;64086;43.220;27.878;2023-05-29T09:57:53;9.00;;;7.93;;
75506;SDS011;64086;43.220;27.878;2023-05-29T10:00:19;8.52;;;7.72;;
75506;SDS011;64086;43.220;27.878;2023-05-29T10:02:47;8.38;;;7.57;;
75506;SDS011;64086;43.220;27.878;2023-05-29T10:05:13;8.45;;;7.65;;
75506;SDS011;64086;43.220;27.878;2023-05-29T10:07:42;9.30;;;8.40;;
75506;SDS011;64086;43.220;27.878;2023-05-29T10:10:09;9.98;;;9.02;;
75506;SDS011;64086;43.220;27.878;2023-05-29T10:12:37;9.60;;;8.70;;
75506;SDS011;64086;43.220;27.878;2023-05-29T10:15:13;10.55;;;8.88;;
75506;SDS011;64086;43.220;27.878;2023-05-29T10:17:44;9.82;;;8.82;;
75506;SDS011;64086;43.220;27.878;2023-05-29T10:20:15;10.02;;;9.07;;
75506;SDS011;64086;43.220;27.878;2023-05-29T10:22:44;11.02;;;10.00;;
75506;SDS011;64086;43.220;27.878;2023-05-29T10:25:11;10.45;;;9.45;;
75506;SDS011;64086;43.220;27.878;2023-05-29T10:27:38;10.82;;;9.82;;
75506;SDS011;64086;43.220;27.878;2023-05-29T10:30:37;11.73;;;10.50;;
75506;SDS011;64086;43.220;27.878;2023-05-29T10:35:46;13.90;;;12.65;;
75506;SDS011;64086;43.220;27.878;2023-05-29T10:38:12;14.50;;;13.13;;
75506;SDS011;64086;43.220;27.878;2023-05-29T10:40:40;13.63;;;12.40;;
75506;SDS011;64086;43.220;27.878;2023-05-29T10:43:06;13.07;;;11.98;;
75506;SDS011;64086;43.220;27.878;2023-05-29T10:50:38;12.05;;;10.93;;
75506;SDS011;64086;43.220;27.878;2023-05-29T10:53:15;11.32;;;10.43;;
75506;SDS011;64086;43.220;27.878;2023-05-29T10:55:42;10.55;;;9.75;;
75506;SDS011;64086;43.220;27.878;2023-05-29T10:58:23;10.43;;;9.48;;
75506;SDS011;64086;43.220;27.878;2023-05-29T11:00:50;10.80;;;9.82;;
75506;SDS011;64086;43.220;27.878;2023-05-29T11:03:21;11.68;;;9.98;;
75506;SDS011;64086;43.220;27.878;2023-05-29T11:06:05;10.40;;;9.55;;
75506;SDS011;64086;43.220;27.878;2023-05-29T11:08:45;10.15;;;9.27;;
75506;SDS011;64086;43.220;27.878;2023-05-29T11:11:41;9.45;;;8.55;;
75506;SDS011;64086;43.220;27.878;2023-05-29T11:14:07;9.48;;;8.68;;
75506;SDS011;64086;43.220;27.878;2023-05-29T11:18:58;8.23;;;7.53;;
75506;SDS011;64086;43.220;27.878;2023-05-29T11:24:28;8.18;;;7.47;;
75506;SDS011;64086;43.220;27.878;2023-05-29T11:26:57;8.35;;;7.65;;
75506;SDS011;64086;43.220;27.878;2023-05-29T11:29:31;7.80;;;7.10;;
75506;SDS011;64086;43.220;27.878;2023-05-29T11:32:03;7.30;;;6.70;;
75506;SDS011;64086;43.220;27.878;2023-05-29T11:36:59;6.85;;;6.15;;
75506;SDS011;64086;43.220;27.878;2023-05-29T11:39:25;6.10;;;5.50;;
75506;SDS011;64086;43.220;27.878;2023-05-29T11:41:51;6.03;;;5.32;;
75506;SDS011;64086;43.220;27.878;2023-05-29T11:44:20;5.07;;;4.57;;
75506;SDS011;64086;43.220;27.878;2023-05-29T11:46:45;4.75;;;4.32;;
75506;SDS011;64086;43.220;27.878;2023-05-29T11:49:11;4.63;;;4.18;;
75506;SDS011;64086;43.220;27.878;2023-05-29T11:51:37;4.30;;;3.90;;
75506;SDS011;64086;43.220;27.878;2023-05-29T11:54:02;5.38;;;4.30;;
75506;SDS011;64086;43.220;27.878;2023-05-29T11:56:28;4.47;;;4.07;;
75506;SDS011;64086;43.220;27.878;2023-05-29T11:58:55;4.40;;;4.00;;
75506;SDS011;64086;43.220;27.878;2023-05-29T12:01:25;4.40;;;4.07;;
75506;SDS011;64086;43.220;27.878;2023-05-29T12:03:52;5.15;;;4.75;;
75506;SDS011;64086;43.220;27.878;2023-05-29T12:06:30;5.18;;;4.68;;
75506;SDS011;64086;43.220;27.878;2023-05-29T12:08:59;5.55;;;5.05;;
75506;SDS011;64086;43.220;27.878;2023-05-29T12:11:26;5.53;;;5.03;;
75506;SDS011;64086;43.220;27.878;2023-05-29T12:13:58;5.90;;;5.20;;
75506;SDS011;64086;43.220;27.878;2023-05-29T12:18:51;5.90;;;5.40;;
75506;SDS011;64086;43.220;27.878;2023-05-29T12:21:16;5.70;;;5.13;;
75506;SDS011;64086;43.220;27.878;2023-05-29T12:23:42;5.65;;;5.15;;
75506;SDS011;64086;43.220;27.878;2023-05-29T12:26:08;5.85;;;5.35;;
75506;SDS011;64086;43.220;27.878;2023-05-29T12:28:34;6.43;;;5.82;;
75506;SDS011;64086;43.220;27.878;2023-05-29T12:30:59;5.82;;;5.32;;
75506;SDS011;64086;43.220;27.878;2023-05-29T12:33:26;7.13;;;6.45;;
75506;SDS011;64086;43.220;27.878;2023-05-29T12:35:53;6.60;;;6.00;;
75506;SDS011;64086;43.220;27.878;2023-05-29T12:38:19;6.57;;;5.97;;
75506;SDS011;64086;43.220;27.878;2023-05-29T12:40:47;6.50;;;5.90;;
75506;SDS011;64086;43.220;27.878;2023-05-29T12:43:13;7.00;;;5.63;;
75506;SDS011;64086;43.220;27.878;2023-05-29T12:45:39;6.50;;;5.82;;
75506;SDS011;64086;43.220;27.878;2023-05-29T12:48:05;7.22;;;5.90;;
75506;SDS011;64086;43.220;27.878;2023-05-29T12:50:34;7.53;;;5.97;;
75506;SDS011;64086;43.220;27.878;2023-05-29T12:53:10;7.00;;;6.40;;
75506;SDS011;64086;43.220;27.878;2023-05-29T12:55:37;6.97;;;6.38;;
75506;SDS011;64086;43.220;27.878;2023-05-29T12:58:05;6.60;;;6.00;;
75506;SDS011;64086;43.220;27.878;2023-05-29T13:00:32;6.43;;;5.82;;
75506;SDS011;64086;43.220;27.878;2023-05-29T13:02:58;6.20;;;5.70;;
75506;SDS011;64086;43.220;27.878;2023-05-29T13:05:24;6.47;;;5.68;;
75506;SDS011;64086;43.220;27.878;2023-05-29T13:07:50;7.65;;;6.07;;
75506;SDS011;64086;43.220;27.878;2023-05-29T13:10:15;6.47;;;5.97;;
75506;SDS011;64086;43.220;27.878;2023-05-29T13:12:42;7.10;;;6.40;;
75506;SDS011;64086;43.220;27.878;2023-05-29T13:15:09;7.88;;;7.07;;
75506;SDS011;64086;43.220;27.878;2023-05-29T13:17:35;7.72;;;6.93;;
75506;SDS011;64086;43.220;27.878;2023-05-29T13:20:01;8.00;;;7.18;;
75506;SDS011;64086;43.220;27.878;2023-05-29T13:22:26;7.85;;;7.05;;
75506;SDS011;64086;43.220;27.878;2023-05-29T13:24:56;7.40;;;6.72;;
75506;SDS011;64086;43.220;27.878;2023-05-29T13:27:26;7.65;;;6.78;;
75506;SDS011;64086;43.220;27.878;2023-05-29T13:29:52;7.47;;;6.78;;
75506;SDS011;64086;43.220;27.878;2023-05-29T13:32:18;9.48;;;6.95;;
75506;SDS011;64086;43.220;27.878;2023-05-29T13:34:43;7.03;;;6.32;;
75506;SDS011;64086;43.220;27.878;2023-05-29T13:37:08;7.43;;;6.72;;
75506;SDS011;64086;43.220;27.878;2023-05-29T13:39:34;7.22;;;6.63;;
75506;SDS011;64086;43.220;27.878;2023-05-29T13:41:59;7.07;;;6.38;;
75506;SDS011;64086;43.220;27.878;2023-05-29T13:44:25;6.80;;;6.20;;
75506;SDS011;64086;43.220;27.878;2023-05-29T13:46:51;7.50;;;6.80;;
75506;SDS011;64086;43.220;27.878;2023-05-29T13:49:16;7.38;;;6.68;;
75506;SDS011;64086;43.220;27.878;2023-05-29T13:51:41;7.65;;;6.95;;
75506;SDS011;64086;43.220;27.878;2023-05-29T13:54:07;7.50;;;6.60;;
75506;SDS011;64086;43.220;27.878;2023-05-29T13:56:32;7.22;;;6.63;;
75506;SDS011;64086;43.220;27.878;2023-05-29T13:58:58;7.07;;;6.47;;
75506;SDS011;64086;43.220;27.878;2023-05-29T14:01:30;8.73;;;6.88;;
75506;SDS011;64086;43.220;27.878;2023-05-29T14:03:55;7.55;;;6.80;;
75506;SDS011;64086;43.220;27.878;2023-05-29T14:06:21;7.75;;;7.05;;
75506;SDS011;64086;43.220;27.878;2023-05-29T14:08:46;8.48;;;7.50;;
75506;SDS011;64086;43.220;27.878;2023-05-29T14:11:12;8.18;;;7.38;;
75506;SDS011;64086;43.220;27.878;2023-05-29T14:13:39;7.88;;;7.18;;
75506;SDS011;64086;43.220;27.878;2023-05-29T14:16:04;8.35;;;7.38;;
75506;SDS011;64086;43.220;27.878;2023-05-29T14:18:30;7.68;;;7.03;;
75506;SDS011;64086;43.220;27.878;2023-05-29T14:20:55;8.40;;;7.60;;
75506;SDS011;64086;43.220;27.878;2023-05-29T14:23:21;8.25;;;7.45;;
75506;SDS011;64086;43.220;27.878;2023-05-29T14:25:46;8.07;;;7.07;;
75506;SDS011;64086;43.220;27.878;2023-05-29T14:28:12;8.45;;;7.68;;
75506;SDS011;64086;43.220;27.878;2023-05-29T14:30:37;8.40;;;7.50;;
75506;SDS011;64086;43.220;27.878;2023-05-29T14:33:03;8.20;;;7.35;;
75506;SDS011;64086;43.220;27.878;2023-05-29T14:35:29;7.88;;;7.07;;
75506;SDS011;64086;43.220;27.878;2023-05-29T14:37:55;8.13;;;7.35;;
75506;SDS011;64086;43.220;27.878;2023-05-29T14:40:21;8.15;;;7.35;;
75506;SDS011;64086;43.220;27.878;2023-05-29T14:42:47;7.65;;;6.88;;
75506;SDS011;64086;43.220;27.878;2023-05-29T14:45:12;7.72;;;7.03;;
75506;SDS011;64086;43.220;27.878;2023-05-29T14:47:40;8.82;;;7.18;;